sensor_id;sensor_type;location;lat;lon;timestamp;temperature;humidity
17039;DHT22;8636;55.750;13.202;2023-12-22T00:01:20;2.20;99.90
17039;DHT22;8636;55.750;13.202;2023-12-22T00:03:54;2.20;99.90
17039;DHT22;8636;55.750;13.202;2023-12-22T00:06:23;2.20;99.90
17039;DHT22;8636;55.750;13.202;2023-12-22T00:09:11;2.20;99.90
17039;DHT22;8636;55.750;13.202;2023-12-22T00:11:39;2.10;99.90
17039;DHT22;8636;55.750;13.202;2023-12-22T00:14:14;2.10;99.90
17039;DHT22;8636;55.750;13.202;2023-12-22T00:16:43;2.20;99.90
17039;DHT22;8636;55.750;13.202;2023-12-22T00:19:17;2.30;99.90
17039;DHT22;8636;55.750;13.202;2023-12-22T00:21:46;2.50;99.90
17039;DHT22;8636;55.750;13.202;2023-12-22T00:24:20;2.70;99.90
17039;DHT22;8636;55.750;13.202;2023-12-22T00:26:48;3.00;99.90
17039;DHT22;8636;55.750;13.202;2023-12-22T00:29:22;3.20;99.90
17039;DHT22;8636;55.750;13.202;2023-12-22T00:31:51;3.30;99.90
17039;DHT22;8636;55.750;13.202;2023-12-22T00:34:26;3.30;99.90
17039;DHT22;8636;55.750;13.202;2023-12-22T00:36:54;3.30;99.90
17039;DHT22;8636;55.750;13.202;2023-12-22T00:39:28;3.30;99.90
17039;DHT22;8636;55.750;13.202;2023-12-22T00:41:56;3.40;99.90
17039;DHT22;8636;55.750;13.202;2023-12-22T00:44:24;3.50;99.90
17039;DHT22;8636;55.750;13.202;2023-12-22T00:47:02;3.50;99.90
17039;DHT22;8636;55.750;13.202;2023-12-22T00:49:30;3.60;99.90
17039;DHT22;8636;55.750;13.202;2023-12-22T00:52:05;3.70;99.90
17039;DHT22;8636;55.750;13.202;2023-12-22T00:54:33;3.70;99.90
17039;DHT22;8636;55.750;13.202;2023-12-22T00:57:07;3.70;99.90
17039;DHT22;8636;55.750;13.202;2023-12-22T00:59:35;3.90;99.90
17039;DHT22;8636;55.750;13.202;2023-12-22T01:02:11;3.90;99.90
17039;DHT22;8636;55.750;13.202;2023-12-22T01:04:38;3.80;99.90
17039;DHT22;8636;55.750;13.202;2023-12-22T01:07:14;3.90;99.90
17039;DHT22;8636;55.750;13.202;2023-12-22T01:09:48;4.00;99.90
17039;DHT22;8636;55.750;13.202;2023-12-22T01:12:23;3.90;99.90
17039;DHT22;8636;55.750;13.202;2023-12-22T01:14:51;4.00;99.90
17039;DHT22;8636;55.750;13.202;2023-12-22T01:17:27;4.00;99.90
17039;DHT22;8636;55.750;13.202;2023-12-22T01:19:55;3.90;99.90
17039;DHT22;8636;55.750;13.202;2023-12-22T01:22:29;4.00;99.90
17039;DHT22;8636;55.750;13.202;2023-12-22T01:24:59;4.10;99.90
17039;DHT22;8636;55.750;13.202;2023-12-22T01:27:34;4.10;99.90
17039;DHT22;8636;55.750;13.202;2023-12-22T01:30:03;4.20;99.90
17039;DHT22;8636;55.750;13.202;2023-12-22T01:32:39;4.20;99.90
17039;DHT22;8636;55.750;13.202;2023-12-22T01:35:07;4.10;99.90
17039;DHT22;8636;55.750;13.202;2023-12-22T01:37:44;4.10;99.90
17039;DHT22;8636;55.750;13.202;2023-12-22T01:40:14;4.10;99.90
17039;DHT22;8636;55.750;13.202;2023-12-22T01:42:48;4.20;99.90
17039;DHT22;8636;55.750;13.202;2023-12-22T01:45:16;4.20;99.90
17039;DHT22;8636;55.750;13.202;2023-12-22T01:47:52;4.20;99.90
17039;DHT22;8636;55.750;13.202;2023-12-22T01:50:21;4.10;99.90
17039;DHT22;8636;55.750;13.202;2023-12-22T01:52:55;4.20;99.90
17039;DHT22;8636;55.750;13.202;2023-12-22T01:55:24;4.10;99.90
17039;DHT22;8636;55.750;13.202;2023-12-22T01:57:59;4.10;99.90
17039;DHT22;8636;55.750;13.202;2023-12-22T02:00:27;4.10;99.90
17039;DHT22;8636;55.750;13.202;2023-12-22T02:03:09;4.20;99.90
17039;DHT22;8636;55.750;13.202;2023-12-22T02:05:37;4.10;99.90
17039;DHT22;8636;55.750;13.202;2023-12-22T02:08:21;4.20;99.90
17039;DHT22;8636;55.750;13.202;2023-12-22T02:11:03;4.00;99.90
17039;DHT22;8636;55.750;13.202;2023-12-22T02:13:37;4.00;99.90
17039;DHT22;8636;55.750;13.202;2023-12-22T02:16:10;4.10;99.90
17039;DHT22;8636;55.750;13.202;2023-12-22T02:18:50;4.10;99.90
17039;DHT22;8636;55.750;13.202;2023-12-22T02:21:20;4.10;99.90
17039;DHT22;8636;55.750;13.202;2023-12-22T02:23:56;4.00;99.90
17039;DHT22;8636;55.750;13.202;2023-12-22T02:26:28;4.10;99.90
17039;DHT22;8636;55.750;13.202;2023-12-22T02:29:07;4.10;99.90
17039;DHT22;8636;55.750;13.202;2023-12-22T02:31:39;4.00;99.90
17039;DHT22;8636;55.750;13.202;2023-12-22T02:34:19;4.00;99.90
17039;DHT22;8636;55.750;13.202;2023-12-22T02:36:48;4.10;99.90
17039;DHT22;8636;55.750;13.202;2023-12-22T02:39:24;4.20;99.90
17039;DHT22;8636;55.750;13.202;2023-12-22T02:41:52;4.00;99.90
17039;DHT22;8636;55.750;13.202;2023-12-22T02:44:27;4.00;99.90
17039;DHT22;8636;55.750;13.202;2023-12-22T02:46:55;4.10;99.90
17039;DHT22;8636;55.750;13.202;2023-12-22T02:49:29;4.20;99.90
17039;DHT22;8636;55.750;13.202;2023-12-22T02:51:57;4.10;99.90
17039;DHT22;8636;55.750;13.202;2023-12-22T02:54:33;4.10;99.90
17039;DHT22;8636;55.750;13.202;2023-12-22T02:57:01;4.10;99.90
17039;DHT22;8636;55.750;13.202;2023-12-22T02:59:37;4.20;99.90
17039;DHT22;8636;55.750;13.202;2023-12-22T03:02:05;4.10;99.90
17039;DHT22;8636;55.750;13.202;2023-12-22T03:04:39;4.20;99.90
17039;DHT22;8636;55.750;13.202;2023-12-22T03:07:14;4.10;99.90
17039;DHT22;8636;55.750;13.202;2023-12-22T03:09:50;4.00;99.90
17039;DHT22;8636;55.750;13.202;2023-12-22T03:12:18;4.20;99.90
17039;DHT22;8636;55.750;13.202;2023-12-22T03:14:52;4.10;99.90
17039;DHT22;8636;55.750;13.202;2023-12-22T03:17:20;4.20;99.90
17039;DHT22;8636;55.750;13.202;2023-12-22T03:19:54;4.10;99.90
17039;DHT22;8636;55.750;13.202;2023-12-22T03:22:22;4.10;99.90
17039;DHT22;8636;55.750;13.202;2023-12-22T03:24:58;4.00;99.90
17039;DHT22;8636;55.750;13.202;2023-12-22T03:27:26;4.10;99.90
17039;DHT22;8636;55.750;13.202;2023-12-22T03:30:00;4.10;99.90
17039;DHT22;8636;55.750;13.202;2023-12-22T03:32:30;4.10;99.90
17039;DHT22;8636;55.750;13.202;2023-12-22T03:35:05;4.00;99.90
17039;DHT22;8636;55.750;13.202;2023-12-22T03:37:33;3.90;99.90
17039;DHT22;8636;55.750;13.202;2023-12-22T03:40:09;4.00;99.90
17039;DHT22;8636;55.750;13.202;2023-12-22T03:42:37;3.90;99.90
17039;DHT22;8636;55.750;13.202;2023-12-22T03:45:12;4.10;99.90
17039;DHT22;8636;55.750;13.202;2023-12-22T03:47:39;4.10;99.90
17039;DHT22;8636;55.750;13.202;2023-12-22T03:50:14;4.10;99.90
17039;DHT22;8636;55.750;13.202;2023-12-22T03:52:42;4.10;99.90
17039;DHT22;8636;55.750;13.202;2023-12-22T03:55:18;4.00;99.90
17039;DHT22;8636;55.750;13.202;2023-12-22T03:57:46;4.00;99.90
17039;DHT22;8636;55.750;13.202;2023-12-22T04:00:20;4.10;99.90
17039;DHT22;8636;55.750;13.202;2023-12-22T04:02:48;4.00;99.90
17039;DHT22;8636;55.750;13.202;2023-12-22T04:05:31;4.00;99.90
17039;DHT22;8636;55.750;13.202;2023-12-22T04:07:59;4.00;99.90
17039;DHT22;8636;55.750;13.202;2023-12-22T04:10:35;4.00;99.90
17039;DHT22;8636;55.750;13.202;2023-12-22T04:13:03;4.00;99.90
17039;DHT22;8636;55.750;13.202;2023-12-22T04:15:37;4.00;99.90
17039;DHT22;8636;55.750;13.202;2023-12-22T04:18:06;4.00;99.90
17039;DHT22;8636;55.750;13.202;2023-12-22T04:20:40;4.00;99.90
17039;DHT22;8636;55.750;13.202;2023-12-22T04:23:08;4.10;99.90
17039;DHT22;8636;55.750;13.202;2023-12-22T04:25:44;4.00;99.90
17039;DHT22;8636;55.750;13.202;2023-12-22T04:28:12;3.90;99.90
17039;DHT22;8636;55.750;13.202;2023-12-22T04:30:46;3.90;99.90
17039;DHT22;8636;55.750;13.202;2023-12-22T04:33:14;3.90;99.90
17039;DHT22;8636;55.750;13.202;2023-12-22T04:35:48;4.00;99.90
17039;DHT22;8636;55.750;13.202;2023-12-22T04:38:16;3.80;99.90
17039;DHT22;8636;55.750;13.202;2023-12-22T04:40:52;3.80;99.90
17039;DHT22;8636;55.750;13.202;2023-12-22T04:43:20;3.80;99.90
17039;DHT22;8636;55.750;13.202;2023-12-22T04:45:54;3.80;99.90
17039;DHT22;8636;55.750;13.202;2023-12-22T04:48:22;3.70;99.90
17039;DHT22;8636;55.750;13.202;2023-12-22T04:50:56;3.80;99.90
17039;DHT22;8636;55.750;13.202;2023-12-22T04:53:31;3.70;99.90
17039;DHT22;8636;55.750;13.202;2023-12-22T04:56:07;3.60;99.90
17039;DHT22;8636;55.750;13.202;2023-12-22T04:58:35;3.70;99.90
17039;DHT22;8636;55.750;13.202;2023-12-22T05:01:09;3.70;99.90
17039;DHT22;8636;55.750;13.202;2023-12-22T05:03:37;3.30;99.90
17039;DHT22;8636;55.750;13.202;2023-12-22T05:06:18;3.30;99.90
17039;DHT22;8636;55.750;13.202;2023-12-22T05:08:46;3.20;99.90
17039;DHT22;8636;55.750;13.202;2023-12-22T05:11:22;3.10;99.90
17039;DHT22;8636;55.750;13.202;2023-12-22T05:13:50;3.10;99.90
17039;DHT22;8636;55.750;13.202;2023-12-22T05:16:27;3.10;99.90
17039;DHT22;8636;55.750;13.202;2023-12-22T05:18:57;3.00;99.90
17039;DHT22;8636;55.750;13.202;2023-12-22T05:21:38;2.80;99.90
17039;DHT22;8636;55.750;13.202;2023-12-22T05:24:06;2.80;99.90
17039;DHT22;8636;55.750;13.202;2023-12-22T05:26:42;2.80;99.90
17039;DHT22;8636;55.750;13.202;2023-12-22T05:29:10;2.90;99.90
17039;DHT22;8636;55.750;13.202;2023-12-22T05:31:45;3.00;99.90
17039;DHT22;8636;55.750;13.202;2023-12-22T05:34:13;3.00;99.90
17039;DHT22;8636;55.750;13.202;2023-12-22T05:36:48;3.10;99.90
17039;DHT22;8636;55.750;13.202;2023-12-22T05:39:16;3.10;99.90
17039;DHT22;8636;55.750;13.202;2023-12-22T05:41:52;3.10;99.90
17039;DHT22;8636;55.750;13.202;2023-12-22T05:44:20;2.90;99.90
17039;DHT22;8636;55.750;13.202;2023-12-22T05:46:55;2.80;99.90
17039;DHT22;8636;55.750;13.202;2023-12-22T05:49:24;2.80;99.90
17039;DHT22;8636;55.750;13.202;2023-12-22T05:51:58;2.90;99.90
17039;DHT22;8636;55.750;13.202;2023-12-22T05:54:26;2.90;99.90
17039;DHT22;8636;55.750;13.202;2023-12-22T05:57:01;2.60;99.90
17039;DHT22;8636;55.750;13.202;2023-12-22T05:59:31;2.50;99.90
17039;DHT22;8636;55.750;13.202;2023-12-22T06:02:14;2.60;99.90
17039;DHT22;8636;55.750;13.202;2023-12-22T06:04:55;2.70;99.90
17039;DHT22;8636;55.750;13.202;2023-12-22T06:07:30;2.70;99.90
17039;DHT22;8636;55.750;13.202;2023-12-22T06:09:58;2.60;99.90
17039;DHT22;8636;55.750;13.202;2023-12-22T06:12:34;2.60;99.90
17039;DHT22;8636;55.750;13.202;2023-12-22T06:15:02;2.60;99.90
17039;DHT22;8636;55.750;13.202;2023-12-22T06:17:36;2.70;99.90
17039;DHT22;8636;55.750;13.202;2023-12-22T06:20:05;2.70;99.90
17039;DHT22;8636;55.750;13.202;2023-12-22T06:22:40;2.80;99.90
17039;DHT22;8636;55.750;13.202;2023-12-22T06:25:09;2.70;99.90
17039;DHT22;8636;55.750;13.202;2023-12-22T06:27:46;2.60;99.90
17039;DHT22;8636;55.750;13.202;2023-12-22T06:30:14;2.70;99.90
17039;DHT22;8636;55.750;13.202;2023-12-22T06:32:48;2.70;99.90
17039;DHT22;8636;55.750;13.202;2023-12-22T06:35:16;2.60;99.90
17039;DHT22;8636;55.750;13.202;2023-12-22T06:37:56;2.50;99.90
17039;DHT22;8636;55.750;13.202;2023-12-22T06:40:28;2.50;99.90
17039;DHT22;8636;55.750;13.202;2023-12-22T06:43:04;2.40;99.90
17039;DHT22;8636;55.750;13.202;2023-12-22T06:45:32;2.40;99.90
17039;DHT22;8636;55.750;13.202;2023-12-22T06:48:07;2.30;99.90
17039;DHT22;8636;55.750;13.202;2023-12-22T06:50:36;2.20;99.90
17039;DHT22;8636;55.750;13.202;2023-12-22T06:53:12;2.10;99.90
17039;DHT22;8636;55.750;13.202;2023-12-22T06:55:51;2.20;99.90
17039;DHT22;8636;55.750;13.202;2023-12-22T06:58:27;2.30;99.90
17039;DHT22;8636;55.750;13.202;2023-12-22T07:00:55;2.30;99.90
17039;DHT22;8636;55.750;13.202;2023-12-22T07:03:37;2.20;99.90
17039;DHT22;8636;55.750;13.202;2023-12-22T07:06:05;2.10;99.90
17039;DHT22;8636;55.750;13.202;2023-12-22T07:08:39;1.90;99.90
17039;DHT22;8636;55.750;13.202;2023-12-22T07:11:07;1.80;99.90
17039;DHT22;8636;55.750;13.202;2023-12-22T07:13:44;1.70;99.90
17039;DHT22;8636;55.750;13.202;2023-12-22T07:16:12;1.60;99.90
17039;DHT22;8636;55.750;13.202;2023-12-22T07:18:49;1.60;99.90
17039;DHT22;8636;55.750;13.202;2023-12-22T07:21:18;1.50;99.90
17039;DHT22;8636;55.750;13.202;2023-12-22T07:23:52;1.60;99.90
17039;DHT22;8636;55.750;13.202;2023-12-22T07:26:20;1.50;99.90
17039;DHT22;8636;55.750;13.202;2023-12-22T07:28:56;1.50;99.90
17039;DHT22;8636;55.750;13.202;2023-12-22T07:31:25;1.60;99.90
17039;DHT22;8636;55.750;13.202;2023-12-22T07:33:59;1.60;99.90
17039;DHT22;8636;55.750;13.202;2023-12-22T07:36:27;1.70;99.90
17039;DHT22;8636;55.750;13.202;2023-12-22T07:39:13;1.70;99.90
17039;DHT22;8636;55.750;13.202;2023-12-22T07:41:43;1.90;99.90
17039;DHT22;8636;55.750;13.202;2023-12-22T07:44:19;1.90;99.90
17039;DHT22;8636;55.750;13.202;2023-12-22T07:46:55;2.10;99.90
17039;DHT22;8636;55.750;13.202;2023-12-22T07:49:30;2.10;99.90
17039;DHT22;8636;55.750;13.202;2023-12-22T07:51:59;2.10;99.90
17039;DHT22;8636;55.750;13.202;2023-12-22T07:54:33;2.20;99.90
17039;DHT22;8636;55.750;13.202;2023-12-22T07:57:01;2.20;99.90
17039;DHT22;8636;55.750;13.202;2023-12-22T07:59:37;2.30;99.90
17039;DHT22;8636;55.750;13.202;2023-12-22T08:02:05;2.20;99.90
17039;DHT22;8636;55.750;13.202;2023-12-22T08:04:39;2.20;99.90
17039;DHT22;8636;55.750;13.202;2023-12-22T08:07:14;2.20;99.90
17039;DHT22;8636;55.750;13.202;2023-12-22T08:09:48;2.30;99.90
17039;DHT22;8636;55.750;13.202;2023-12-22T08:12:16;2.30;99.90
17039;DHT22;8636;55.750;13.202;2023-12-22T08:14:51;2.30;99.90
17039;DHT22;8636;55.750;13.202;2023-12-22T08:17:19;2.40;99.90
17039;DHT22;8636;55.750;13.202;2023-12-22T08:19:53;2.50;99.90
17039;DHT22;8636;55.750;13.202;2023-12-22T08:22:32;2.50;99.90
17039;DHT22;8636;55.750;13.202;2023-12-22T08:25:12;2.50;99.90
17039;DHT22;8636;55.750;13.202;2023-12-22T08:27:40;2.50;99.90
17039;DHT22;8636;55.750;13.202;2023-12-22T08:30:17;2.50;99.90
17039;DHT22;8636;55.750;13.202;2023-12-22T08:32:45;2.60;99.90
17039;DHT22;8636;55.750;13.202;2023-12-22T08:35:20;2.70;99.90
17039;DHT22;8636;55.750;13.202;2023-12-22T08:37:48;2.80;99.90
17039;DHT22;8636;55.750;13.202;2023-12-22T08:40:23;2.80;99.90
17039;DHT22;8636;55.750;13.202;2023-12-22T08:42:54;2.80;99.90
17039;DHT22;8636;55.750;13.202;2023-12-22T08:45:34;2.80;99.90
17039;DHT22;8636;55.750;13.202;2023-12-22T08:48:03;2.80;99.90
17039;DHT22;8636;55.750;13.202;2023-12-22T08:50:41;2.70;99.90
17039;DHT22;8636;55.750;13.202;2023-12-22T08:53:11;2.80;99.90
17039;DHT22;8636;55.750;13.202;2023-12-22T08:55:45;2.80;99.90
17039;DHT22;8636;55.750;13.202;2023-12-22T08:58:13;2.90;99.90
17039;DHT22;8636;55.750;13.202;2023-12-22T09:00:49;3.00;99.90
17039;DHT22;8636;55.750;13.202;2023-12-22T09:03:24;3.00;99.90
17039;DHT22;8636;55.750;13.202;2023-12-22T09:06:00;3.00;99.90
17039;DHT22;8636;55.750;13.202;2023-12-22T09:08:34;3.00;99.90
17039;DHT22;8636;55.750;13.202;2023-12-22T09:11:09;3.00;99.90
17039;DHT22;8636;55.750;13.202;2023-12-22T09:13:38;3.00;99.90
17039;DHT22;8636;55.750;13.202;2023-12-22T09:16:16;3.00;99.90
17039;DHT22;8636;55.750;13.202;2023-12-22T09:18:48;2.90;99.90
17039;DHT22;8636;55.750;13.202;2023-12-22T09:21:23;2.90;99.90
17039;DHT22;8636;55.750;13.202;2023-12-22T09:23:51;2.90;99.90
17039;DHT22;8636;55.750;13.202;2023-12-22T09:26:25;2.80;99.90
17039;DHT22;8636;55.750;13.202;2023-12-22T09:28:55;2.80;99.90
17039;DHT22;8636;55.750;13.202;2023-12-22T09:31:31;2.70;99.90
17039;DHT22;8636;55.750;13.202;2023-12-22T09:33:59;2.70;99.90
17039;DHT22;8636;55.750;13.202;2023-12-22T09:36:35;2.80;99.90
17039;DHT22;8636;55.750;13.202;2023-12-22T09:39:03;2.80;99.90
17039;DHT22;8636;55.750;13.202;2023-12-22T09:41:37;2.80;99.90
17039;DHT22;8636;55.750;13.202;2023-12-22T09:44:06;2.80;99.90
17039;DHT22;8636;55.750;13.202;2023-12-22T09:46:42;2.80;99.90
17039;DHT22;8636;55.750;13.202;2023-12-22T09:49:11;2.80;99.90
17039;DHT22;8636;55.750;13.202;2023-12-22T09:51:47;2.80;99.90
17039;DHT22;8636;55.750;13.202;2023-12-22T09:54:16;2.80;99.90
17039;DHT22;8636;55.750;13.202;2023-12-22T09:56:53;2.80;99.90
17039;DHT22;8636;55.750;13.202;2023-12-22T09:59:22;2.80;99.90
17039;DHT22;8636;55.750;13.202;2023-12-22T10:02:00;2.80;99.90
17039;DHT22;8636;55.750;13.202;2023-12-22T10:04:35;2.70;99.90
17039;DHT22;8636;55.750;13.202;2023-12-22T10:07:11;2.80;99.90
17039;DHT22;8636;55.750;13.202;2023-12-22T10:09:42;2.90;99.90
17039;DHT22;8636;55.750;13.202;2023-12-22T10:12:19;3.00;99.90
17039;DHT22;8636;55.750;13.202;2023-12-22T10:14:47;3.10;99.90
17039;DHT22;8636;55.750;13.202;2023-12-22T10:17:23;3.20;99.90
17039;DHT22;8636;55.750;13.202;2023-12-22T10:19:51;3.40;99.90
17039;DHT22;8636;55.750;13.202;2023-12-22T10:22:26;3.40;99.90
17039;DHT22;8636;55.750;13.202;2023-12-22T10:24:54;3.50;99.90
17039;DHT22;8636;55.750;13.202;2023-12-22T10:27:29;3.70;99.90
17039;DHT22;8636;55.750;13.202;2023-12-22T10:29:58;3.70;99.90
17039;DHT22;8636;55.750;13.202;2023-12-22T10:32:39;3.70;99.90
17039;DHT22;8636;55.750;13.202;2023-12-22T10:35:10;3.70;99.90
17039;DHT22;8636;55.750;13.202;2023-12-22T10:37:49;3.60;99.90
17039;DHT22;8636;55.750;13.202;2023-12-22T10:40:34;3.70;99.90
17039;DHT22;8636;55.750;13.202;2023-12-22T10:51:18;4.00;99.90
17039;DHT22;8636;55.750;13.202;2023-12-22T10:53:52;3.90;99.90
17039;DHT22;8636;55.750;13.202;2023-12-22T10:56:21;3.90;99.90
17039;DHT22;8636;55.750;13.202;2023-12-22T10:58:56;3.80;99.90
17039;DHT22;8636;55.750;13.202;2023-12-22T11:01:28;3.80;99.90
17039;DHT22;8636;55.750;13.202;2023-12-22T11:04:06;3.80;99.90
17039;DHT22;8636;55.750;13.202;2023-12-22T11:06:43;3.80;99.90
17039;DHT22;8636;55.750;13.202;2023-12-22T11:09:21;3.80;99.90
17039;DHT22;8636;55.750;13.202;2023-12-22T11:11:51;3.80;99.90
17039;DHT22;8636;55.750;13.202;2023-12-22T11:14:26;3.80;99.90
17039;DHT22;8636;55.750;13.202;2023-12-22T11:16:57;3.80;99.90
17039;DHT22;8636;55.750;13.202;2023-12-22T11:19:35;3.90;99.90
17039;DHT22;8636;55.750;13.202;2023-12-22T11:22:06;4.00;99.90
17039;DHT22;8636;55.750;13.202;2023-12-22T11:24:49;4.10;99.90
17039;DHT22;8636;55.750;13.202;2023-12-22T11:27:19;4.20;99.90
17039;DHT22;8636;55.750;13.202;2023-12-22T11:29:54;4.30;99.90
17039;DHT22;8636;55.750;13.202;2023-12-22T11:32:22;4.30;99.90
17039;DHT22;8636;55.750;13.202;2023-12-22T11:35:00;4.30;99.90
17039;DHT22;8636;55.750;13.202;2023-12-22T11:37:31;4.30;99.90
17039;DHT22;8636;55.750;13.202;2023-12-22T11:40:07;4.20;99.90
17039;DHT22;8636;55.750;13.202;2023-12-22T11:42:39;4.20;99.90
17039;DHT22;8636;55.750;13.202;2023-12-22T11:45:18;4.20;99.90
17039;DHT22;8636;55.750;13.202;2023-12-22T11:47:50;4.20;99.90
17039;DHT22;8636;55.750;13.202;2023-12-22T11:50:28;4.10;99.90
17039;DHT22;8636;55.750;13.202;2023-12-22T11:53:17;3.60;99.90
17039;DHT22;8636;55.750;13.202;2023-12-22T11:56:02;3.30;99.90
17039;DHT22;8636;55.750;13.202;2023-12-22T11:58:38;3.40;99.90
17039;DHT22;8636;55.750;13.202;2023-12-22T12:01:13;3.40;99.90
17039;DHT22;8636;55.750;13.202;2023-12-22T12:03:51;3.60;99.90
17039;DHT22;8636;55.750;13.202;2023-12-22T12:06:33;3.70;99.90
17039;DHT22;8636;55.750;13.202;2023-12-22T12:09:06;3.70;99.90
17039;DHT22;8636;55.750;13.202;2023-12-22T12:12:11;3.60;99.90
17039;DHT22;8636;55.750;13.202;2023-12-22T12:15:04;3.60;99.90
17039;DHT22;8636;55.750;13.202;2023-12-22T12:17:53;3.60;99.90
17039;DHT22;8636;55.750;13.202;2023-12-22T12:20:28;3.60;99.90
17039;DHT22;8636;55.750;13.202;2023-12-22T12:22:56;3.60;99.90
17039;DHT22;8636;55.750;13.202;2023-12-22T12:25:33;3.50;99.90
17039;DHT22;8636;55.750;13.202;2023-12-22T12:28:04;3.50;99.90
17039;DHT22;8636;55.750;13.202;2023-12-22T12:30:40;3.50;99.90
17039;DHT22;8636;55.750;13.202;2023-12-22T12:33:09;3.50;99.90
17039;DHT22;8636;55.750;13.202;2023-12-22T12:35:44;3.40;99.90
17039;DHT22;8636;55.750;13.202;2023-12-22T12:38:18;3.40;99.90
17039;DHT22;8636;55.750;13.202;2023-12-22T12:40:57;3.40;99.90
17039;DHT22;8636;55.750;13.202;2023-12-22T12:43:25;3.40;99.90
17039;DHT22;8636;55.750;13.202;2023-12-22T12:46:06;3.40;99.90
17039;DHT22;8636;55.750;13.202;2023-12-22T12:48:34;3.50;99.90
17039;DHT22;8636;55.750;13.202;2023-12-22T12:51:09;3.50;99.90
17039;DHT22;8636;55.750;13.202;2023-12-22T12:53:37;3.60;99.90
17039;DHT22;8636;55.750;13.202;2023-12-22T12:56:14;3.60;99.90
17039;DHT22;8636;55.750;13.202;2023-12-22T12:58:42;3.50;99.90
17039;DHT22;8636;55.750;13.202;2023-12-22T13:01:17;3.30;99.90
17039;DHT22;8636;55.750;13.202;2023-12-22T13:04:01;3.30;99.90
17039;DHT22;8636;55.750;13.202;2023-12-22T13:06:43;3.30;99.90
17039;DHT22;8636;55.750;13.202;2023-12-22T13:09:12;3.40;99.90
17039;DHT22;8636;55.750;13.202;2023-12-22T13:11:49;3.20;99.90
17039;DHT22;8636;55.750;13.202;2023-12-22T13:14:22;2.90;99.90
17039;DHT22;8636;55.750;13.202;2023-12-22T13:16:58;2.90;99.90
17039;DHT22;8636;55.750;13.202;2023-12-22T13:19:26;3.00;99.90
17039;DHT22;8636;55.750;13.202;2023-12-22T13:22:01;3.10;99.90
17039;DHT22;8636;55.750;13.202;2023-12-22T13:24:29;3.10;99.90
17039;DHT22;8636;55.750;13.202;2023-12-22T13:27:05;2.90;99.90
17039;DHT22;8636;55.750;13.202;2023-12-22T13:29:44;2.70;99.90
17039;DHT22;8636;55.750;13.202;2023-12-22T13:32:22;2.70;99.90
17039;DHT22;8636;55.750;13.202;2023-12-22T13:34:52;2.70;99.90
17039;DHT22;8636;55.750;13.202;2023-12-22T13:37:27;2.50;99.90
17039;DHT22;8636;55.750;13.202;2023-12-22T13:39:57;2.30;99.90
17039;DHT22;8636;55.750;13.202;2023-12-22T13:42:33;2.30;99.90
17039;DHT22;8636;55.750;13.202;2023-12-22T13:45:01;2.50;99.90
17039;DHT22;8636;55.750;13.202;2023-12-22T13:47:40;2.80;99.90
17039;DHT22;8636;55.750;13.202;2023-12-22T13:50:13;3.00;99.90
17039;DHT22;8636;55.750;13.202;2023-12-22T13:52:49;3.20;99.90
17039;DHT22;8636;55.750;13.202;2023-12-22T13:55:19;3.30;99.90
17039;DHT22;8636;55.750;13.202;2023-12-22T13:58:00;3.40;99.90
17039;DHT22;8636;55.750;13.202;2023-12-22T14:00:28;3.40;99.90
17039;DHT22;8636;55.750;13.202;2023-12-22T14:03:04;3.40;99.90
17039;DHT22;8636;55.750;13.202;2023-12-22T14:05:39;3.40;99.90
17039;DHT22;8636;55.750;13.202;2023-12-22T14:08:14;3.40;99.90
17039;DHT22;8636;55.750;13.202;2023-12-22T14:10:45;3.10;99.90
17039;DHT22;8636;55.750;13.202;2023-12-22T14:13:21;2.90;99.90
17039;DHT22;8636;55.750;13.202;2023-12-22T14:15:49;2.90;99.90
17039;DHT22;8636;55.750;13.202;2023-12-22T14:18:24;2.90;99.90
17039;DHT22;8636;55.750;13.202;2023-12-22T14:20:51;2.60;99.90
17039;DHT22;8636;55.750;13.202;2023-12-22T14:23:27;2.30;99.90
17039;DHT22;8636;55.750;13.202;2023-12-22T14:25:54;2.00;99.90
17039;DHT22;8636;55.750;13.202;2023-12-22T14:28:30;1.90;99.90
17039;DHT22;8636;55.750;13.202;2023-12-22T14:30:58;2.00;99.90
17039;DHT22;8636;55.750;13.202;2023-12-22T14:33:32;2.00;99.90
17039;DHT22;8636;55.750;13.202;2023-12-22T14:36:02;2.00;99.90
17039;DHT22;8636;55.750;13.202;2023-12-22T14:38:36;2.00;99.90
17039;DHT22;8636;55.750;13.202;2023-12-22T14:41:04;2.00;99.90
17039;DHT22;8636;55.750;13.202;2023-12-22T14:43:40;2.00;99.90
17039;DHT22;8636;55.750;13.202;2023-12-22T14:46:08;2.10;99.90
17039;DHT22;8636;55.750;13.202;2023-12-22T14:48:43;2.20;99.90
17039;DHT22;8636;55.750;13.202;2023-12-22T14:51:11;2.30;99.90
17039;DHT22;8636;55.750;13.202;2023-12-22T14:53:45;2.30;99.90
17039;DHT22;8636;55.750;13.202;2023-12-22T14:56:13;2.30;99.90
17039;DHT22;8636;55.750;13.202;2023-12-22T14:58:50;2.30;99.90
17039;DHT22;8636;55.750;13.202;2023-12-22T15:01:18;2.30;99.90
17039;DHT22;8636;55.750;13.202;2023-12-22T15:03:59;2.30;99.90
17039;DHT22;8636;55.750;13.202;2023-12-22T15:06:41;2.30;99.90
17039;DHT22;8636;55.750;13.202;2023-12-22T15:09:27;2.30;99.90
17039;DHT22;8636;55.750;13.202;2023-12-22T15:11:55;2.30;99.90
17039;DHT22;8636;55.750;13.202;2023-12-22T15:14:31;2.20;99.90
17039;DHT22;8636;55.750;13.202;2023-12-22T15:17:01;2.10;99.90
17039;DHT22;8636;55.750;13.202;2023-12-22T15:19:39;2.10;99.90
17039;DHT22;8636;55.750;13.202;2023-12-22T15:22:08;2.10;99.90
17039;DHT22;8636;55.750;13.202;2023-12-22T15:24:44;2.10;99.90
17039;DHT22;8636;55.750;13.202;2023-12-22T15:27:12;2.10;99.90
17039;DHT22;8636;55.750;13.202;2023-12-22T15:29:48;2.10;99.90
17039;DHT22;8636;55.750;13.202;2023-12-22T15:32:22;2.00;99.90
17039;DHT22;8636;55.750;13.202;2023-12-22T15:34:57;1.90;99.90
17039;DHT22;8636;55.750;13.202;2023-12-22T15:37:25;1.90;99.90
17039;DHT22;8636;55.750;13.202;2023-12-22T15:40:02;1.90;99.90
17039;DHT22;8636;55.750;13.202;2023-12-22T15:42:30;2.10;99.90
17039;DHT22;8636;55.750;13.202;2023-12-22T15:45:08;2.20;99.90
17039;DHT22;8636;55.750;13.202;2023-12-22T15:47:37;2.30;99.90
17039;DHT22;8636;55.750;13.202;2023-12-22T15:50:14;2.40;99.90
17039;DHT22;8636;55.750;13.202;2023-12-22T15:52:42;2.30;99.90
17039;DHT22;8636;55.750;13.202;2023-12-22T15:55:17;2.10;99.90
17039;DHT22;8636;55.750;13.202;2023-12-22T15:57:45;1.90;99.90
17039;DHT22;8636;55.750;13.202;2023-12-22T16:00:15;1.90;99.90
17039;DHT22;8636;55.750;13.202;2023-12-22T16:03:05;1.90;99.90
17039;DHT22;8636;55.750;13.202;2023-12-22T16:05:47;1.80;99.90
17039;DHT22;8636;55.750;13.202;2023-12-22T16:08:14;1.90;99.90
17039;DHT22;8636;55.750;13.202;2023-12-22T16:10:42;1.80;99.90
17039;DHT22;8636;55.750;13.202;2023-12-22T16:13:17;1.90;99.90
17039;DHT22;8636;55.750;13.202;2023-12-22T16:15:46;1.90;99.90
17039;DHT22;8636;55.750;13.202;2023-12-22T16:18:21;1.90;99.90
17039;DHT22;8636;55.750;13.202;2023-12-22T16:20:48;1.90;99.90
17039;DHT22;8636;55.750;13.202;2023-12-22T16:23:26;2.00;99.90
17039;DHT22;8636;55.750;13.202;2023-12-22T16:25:54;2.00;99.90
17039;DHT22;8636;55.750;13.202;2023-12-22T16:28:30;2.00;99.90
17039;DHT22;8636;55.750;13.202;2023-12-22T16:31:01;2.00;99.90